sensor_id;sensor_type;location;lat;lon;timestamp;pressure;altitude;pressure_sealevel;temperature;humidity
54936;BME280;40838;50.676;7.838;2023-02-20T00:01:55;99331.41;;;4.46;100.00
54936;BME280;40838;50.676;7.838;2023-02-20T00:04:26;99335.03;;;4.51;100.00
54936;BME280;40838;50.676;7.838;2023-02-20T00:06:52;99327.00;;;4.71;100.00
54936;BME280;40838;50.676;7.838;2023-02-20T00:09:19;99317.66;;;4.94;100.00
54936;BME280;40838;50.676;7.838;2023-02-20T00:11:46;99318.97;;;4.84;100.00
54936;BME280;40838;50.676;7.838;2023-02-20T00:14:13;99323.22;;;4.60;100.00
54936;BME280;40838;50.676;7.838;2023-02-20T00:16:40;99320.31;;;4.69;100.00
54936;BME280;40838;50.676;7.838;2023-02-20T00:19:07;99309.50;;;4.77;100.00
54936;BME280;40838;50.676;7.838;2023-02-20T00:21:35;99305.75;;;4.84;100.00
54936;BME280;40838;50.676;7.838;2023-02-20T00:24:10;99293.09;;;4.93;100.00
54936;BME280;40838;50.676;7.838;2023-02-20T00:26:36;99293.59;;;4.83;100.00
54936;BME280;40838;50.676;7.838;2023-02-20T00:29:03;99301.38;;;4.47;100.00
54936;BME280;40838;50.676;7.838;2023-02-20T00:31:30;99303.75;;;4.55;100.00
54936;BME280;40838;50.676;7.838;2023-02-20T00:33:57;99299.75;;;4.46;100.00
54936;BME280;40838;50.676;7.838;2023-02-20T00:36:29;99293.03;;;4.50;100.00
54936;BME280;40838;50.676;7.838;2023-02-20T00:38:57;99287.66;;;4.63;100.00
54936;BME280;40838;50.676;7.838;2023-02-20T00:41:24;99279.81;;;4.50;100.00
54936;BME280;40838;50.676;7.838;2023-02-20T00:43:51;99289.94;;;4.21;100.00
54936;BME280;40838;50.676;7.838;2023-02-20T00:46:18;99303.34;;;4.19;100.00
54936;BME280;40838;50.676;7.838;2023-02-20T00:48:45;99302.53;;;4.19;100.00
54936;BME280;40838;50.676;7.838;2023-02-20T00:51:30;99297.13;;;4.07;100.00
54936;BME280;40838;50.676;7.838;2023-02-20T00:53:59;99292.34;;;3.84;100.00
54936;BME280;40838;50.676;7.838;2023-02-20T00:56:26;99297.91;;;3.56;100.00
54936;BME280;40838;50.676;7.838;2023-02-20T00:58:55;99302.75;;;3.59;100.00
54936;BME280;40838;50.676;7.838;2023-02-20T01:01:22;99291.13;;;3.87;100.00
54936;BME280;40838;50.676;7.838;2023-02-20T01:03:49;99287.31;;;3.76;100.00
54936;BME280;40838;50.676;7.838;2023-02-20T01:06:18;99286.47;;;3.89;100.00
54936;BME280;40838;50.676;7.838;2023-02-20T01:08:45;99280.38;;;3.82;100.00
54936;BME280;40838;50.676;7.838;2023-02-20T01:11:13;99281.06;;;3.64;100.00
54936;BME280;40838;50.676;7.838;2023-02-20T01:13:40;99279.38;;;3.83;100.00
54936;BME280;40838;50.676;7.838;2023-02-20T01:16:06;99282.38;;;3.93;100.00
54936;BME280;40838;50.676;7.838;2023-02-20T01:18:40;99281.00;;;3.84;100.00
54936;BME280;40838;50.676;7.838;2023-02-20T01:21:07;99273.19;;;3.57;100.00
54936;BME280;40838;50.676;7.838;2023-02-20T01:23:35;99272.44;;;3.30;100.00
54936;BME280;40838;50.676;7.838;2023-02-20T01:26:02;99269.44;;;3.20;100.00
54936;BME280;40838;50.676;7.838;2023-02-20T01:28:33;99268.19;;;3.29;100.00
54936;BME280;40838;50.676;7.838;2023-02-20T01:31:02;99275.31;;;3.22;100.00
54936;BME280;40838;50.676;7.838;2023-02-20T01:33:34;99260.06;;;3.44;100.00
54936;BME280;40838;50.676;7.838;2023-02-20T01:36:01;99273.84;;;3.46;100.00
54936;BME280;40838;50.676;7.838;2023-02-20T01:38:28;99274.44;;;3.48;100.00
54936;BME280;40838;50.676;7.838;2023-02-20T01:40:55;99268.53;;;3.52;100.00
54936;BME280;40838;50.676;7.838;2023-02-20T01:43:21;99276.25;;;3.47;100.00
54936;BME280;40838;50.676;7.838;2023-02-20T01:48:37;99264.91;;;3.47;100.00
54936;BME280;40838;50.676;7.838;2023-02-20T01:51:03;99270.41;;;3.45;100.00
54936;BME280;40838;50.676;7.838;2023-02-20T01:53:31;99253.00;;;3.89;100.00
54936;BME280;40838;50.676;7.838;2023-02-20T01:56:01;99260.91;;;3.83;100.00
54936;BME280;40838;50.676;7.838;2023-02-20T01:58:30;99255.06;;;3.81;100.00
54936;BME280;40838;50.676;7.838;2023-02-20T02:01:02;99247.38;;;3.72;100.00
54936;BME280;40838;50.676;7.838;2023-02-20T02:03:32;99253.84;;;3.76;100.00
54936;BME280;40838;50.676;7.838;2023-02-20T02:06:05;99240.97;;;3.55;100.00
54936;BME280;40838;50.676;7.838;2023-02-20T02:08:35;99249.16;;;3.34;100.00
54936;BME280;40838;50.676;7.838;2023-02-20T02:11:05;99236.63;;;3.22;100.00
54936;BME280;40838;50.676;7.838;2023-02-20T02:13:37;99228.50;;;3.24;100.00
54936;BME280;40838;50.676;7.838;2023-02-20T02:16:16;99234.59;;;3.24;100.00
54936;BME280;40838;50.676;7.838;2023-02-20T02:18:51;99225.97;;;3.56;100.00
54936;BME280;40838;50.676;7.838;2023-02-20T02:34:42;99225.69;;;3.70;100.00
54936;BME280;40838;50.676;7.838;2023-02-20T02:37:18;99212.25;;;3.85;100.00
54936;BME280;40838;50.676;7.838;2023-02-20T02:39:55;99216.09;;;3.89;100.00
54936;BME280;40838;50.676;7.838;2023-02-20T02:42:31;99213.06;;;3.86;100.00
54936;BME280;40838;50.676;7.838;2023-02-20T02:45:07;99207.31;;;3.57;100.00
54936;BME280;40838;50.676;7.838;2023-02-20T02:47:40;99204.88;;;3.56;100.00
54936;BME280;40838;50.676;7.838;2023-02-20T02:50:15;99215.69;;;3.41;100.00
54936;BME280;40838;50.676;7.838;2023-02-20T02:52:49;99205.41;;;3.26;100.00
54936;BME280;40838;50.676;7.838;2023-02-20T02:55:20;99209.47;;;3.15;100.00
54936;BME280;40838;50.676;7.838;2023-02-20T02:57:48;99201.88;;;2.87;100.00
54936;BME280;40838;50.676;7.838;2023-02-20T03:00:18;99207.91;;;3.07;100.00
54936;BME280;40838;50.676;7.838;2023-02-20T03:02:51;99202.84;;;3.13;100.00
54936;BME280;40838;50.676;7.838;2023-02-20T03:05:25;99209.91;;;3.12;100.00
54936;BME280;40838;50.676;7.838;2023-02-20T03:08:09;99213.56;;;3.11;100.00
54936;BME280;40838;50.676;7.838;2023-02-20T03:11:01;99210.31;;;3.16;100.00
54936;BME280;40838;50.676;7.838;2023-02-20T03:13:32;99205.66;;;3.11;100.00
54936;BME280;40838;50.676;7.838;2023-02-20T03:16:26;99196.59;;;2.87;100.00
54936;BME280;40838;50.676;7.838;2023-02-20T03:18:56;99205.91;;;2.90;100.00
54936;BME280;40838;50.676;7.838;2023-02-20T03:21:26;99202.47;;;2.96;100.00
54936;BME280;40838;50.676;7.838;2023-02-20T03:23:58;99197.84;;;2.58;100.00
54936;BME280;40838;50.676;7.838;2023-02-20T03:26:28;99188.50;;;2.89;100.00
54936;BME280;40838;50.676;7.838;2023-02-20T03:29:00;99176.41;;;2.54;100.00
54936;BME280;40838;50.676;7.838;2023-02-20T03:31:31;99173.38;;;2.57;100.00
54936;BME280;40838;50.676;7.838;2023-02-20T03:34:03;99172.16;;;2.67;100.00
54936;BME280;40838;50.676;7.838;2023-02-20T03:36:54;99161.63;;;2.47;100.00
54936;BME280;40838;50.676;7.838;2023-02-20T03:39:44;99170.31;;;2.54;100.00
54936;BME280;40838;50.676;7.838;2023-02-20T03:42:35;99164.28;;;2.60;100.00
54936;BME280;40838;50.676;7.838;2023-02-20T03:45:27;99172.09;;;2.07;100.00
54936;BME280;40838;50.676;7.838;2023-02-20T03:48:01;99169.06;;;2.10;100.00
54936;BME280;40838;50.676;7.838;2023-02-20T03:50:31;99172.91;;;1.87;100.00
54936;BME280;40838;50.676;7.838;2023-02-20T03:53:16;99180.06;;;2.40;100.00
54936;BME280;40838;50.676;7.838;2023-02-20T03:55:48;99171.72;;;2.36;100.00
54936;BME280;40838;50.676;7.838;2023-02-20T03:58:20;99170.22;;;1.61;100.00
54936;BME280;40838;50.676;7.838;2023-02-20T04:00:52;99166.81;;;1.73;100.00
54936;BME280;40838;50.676;7.838;2023-02-20T04:03:25;99162.41;;;2.14;100.00
54936;BME280;40838;50.676;7.838;2023-02-20T04:05:54;99164.00;;;1.88;100.00
54936;BME280;40838;50.676;7.838;2023-02-20T04:08:34;99170.81;;;1.63;100.00
54936;BME280;40838;50.676;7.838;2023-02-20T04:11:14;99166.00;;;1.73;100.00
54936;BME280;40838;50.676;7.838;2023-02-20T04:13:45;99163.38;;;1.86;100.00
54936;BME280;40838;50.676;7.838;2023-02-20T04:16:14;99166.13;;;1.52;100.00
54936;BME280;40838;50.676;7.838;2023-02-20T04:18:42;99163.81;;;2.03;100.00
54936;BME280;40838;50.676;7.838;2023-02-20T04:21:15;99167.06;;;2.12;100.00
54936;BME280;40838;50.676;7.838;2023-02-20T04:23:50;99164.91;;;1.41;100.00
54936;BME280;40838;50.676;7.838;2023-02-20T04:26:20;99160.16;;;1.84;100.00
54936;BME280;40838;50.676;7.838;2023-02-20T04:28:50;99160.00;;;0.90;100.00
54936;BME280;40838;50.676;7.838;2023-02-20T04:31:20;99153.84;;;1.11;100.00
54936;BME280;40838;50.676;7.838;2023-02-20T04:33:48;99164.53;;;1.02;100.00
54936;BME280;40838;50.676;7.838;2023-02-20T04:36:23;99160.91;;;1.58;100.00
54936;BME280;40838;50.676;7.838;2023-02-20T04:38:55;99165.47;;;0.88;100.00
54936;BME280;40838;50.676;7.838;2023-02-20T04:41:32;99156.94;;;1.95;100.00
54936;BME280;40838;50.676;7.838;2023-02-20T04:43:59;99167.13;;;1.50;100.00
54936;BME280;40838;50.676;7.838;2023-02-20T04:46:46;99165.38;;;1.16;100.00
54936;BME280;40838;50.676;7.838;2023-02-20T04:49:14;99159.03;;;0.97;100.00
54936;BME280;40838;50.676;7.838;2023-02-20T04:51:43;99167.69;;;1.39;100.00
54936;BME280;40838;50.676;7.838;2023-02-20T04:54:12;99162.03;;;1.36;100.00
54936;BME280;40838;50.676;7.838;2023-02-20T04:56:42;99160.34;;;1.89;100.00
54936;BME280;40838;50.676;7.838;2023-02-20T04:59:09;99171.88;;;1.88;100.00
54936;BME280;40838;50.676;7.838;2023-02-20T05:01:36;99170.91;;;2.09;100.00
54936;BME280;40838;50.676;7.838;2023-02-20T05:04:21;99173.09;;;1.79;100.00
54936;BME280;40838;50.676;7.838;2023-02-20T05:06:50;99170.25;;;1.81;100.00
54936;BME280;40838;50.676;7.838;2023-02-20T05:09:17;99161.78;;;1.85;100.00
54936;BME280;40838;50.676;7.838;2023-02-20T05:11:46;99170.81;;;1.63;100.00
54936;BME280;40838;50.676;7.838;2023-02-20T05:14:13;99161.19;;;2.03;100.00
54936;BME280;40838;50.676;7.838;2023-02-20T05:16:40;99163.63;;;2.11;100.00
54936;BME280;40838;50.676;7.838;2023-02-20T05:19:07;99155.44;;;1.60;100.00
54936;BME280;40838;50.676;7.838;2023-02-20T05:21:34;99167.28;;;1.29;100.00
54936;BME280;40838;50.676;7.838;2023-02-20T05:24:19;99161.88;;;1.44;100.00
54936;BME280;40838;50.676;7.838;2023-02-20T05:26:47;99151.44;;;1.64;100.00
54936;BME280;40838;50.676;7.838;2023-02-20T05:29:14;99157.06;;;0.71;100.00
54936;BME280;40838;50.676;7.838;2023-02-20T05:31:41;99150.03;;;1.13;100.00
54936;BME280;40838;50.676;7.838;2023-02-20T05:34:08;99145.25;;;1.30;100.00
54936;BME280;40838;50.676;7.838;2023-02-20T05:36:35;99147.69;;;0.90;100.00
54936;BME280;40838;50.676;7.838;2023-02-20T05:39:02;99134.59;;;1.45;100.00
54936;BME280;40838;50.676;7.838;2023-02-20T05:41:29;99131.84;;;1.80;100.00
54936;BME280;40838;50.676;7.838;2023-02-20T05:43:57;99129.25;;;2.00;100.00
54936;BME280;40838;50.676;7.838;2023-02-20T05:46:25;99121.75;;;1.70;100.00
54936;BME280;40838;50.676;7.838;2023-02-20T05:48:54;99115.22;;;1.46;100.00
54936;BME280;40838;50.676;7.838;2023-02-20T05:51:28;99112.03;;;1.77;100.00
54936;BME280;40838;50.676;7.838;2023-02-20T05:53:55;99108.38;;;1.58;100.00
54936;BME280;40838;50.676;7.838;2023-02-20T05:56:22;99109.75;;;1.34;100.00
54936;BME280;40838;50.676;7.838;2023-02-20T05:58:50;99109.38;;;1.57;100.00
54936;BME280;40838;50.676;7.838;2023-02-20T06:01:20;99100.94;;;1.75;100.00
54936;BME280;40838;50.676;7.838;2023-02-20T06:03:51;99105.88;;;1.37;100.00
54936;BME280;40838;50.676;7.838;2023-02-20T06:06:18;99109.00;;;1.73;100.00
54936;BME280;40838;50.676;7.838;2023-02-20T06:08:46;99108.97;;;0.92;100.00
54936;BME280;40838;50.676;7.838;2023-02-20T06:11:13;99110.66;;;1.13;100.00
54936;BME280;40838;50.676;7.838;2023-02-20T06:13:41;99106.19;;;1.88;100.00
54936;BME280;40838;50.676;7.838;2023-02-20T06:16:09;99114.84;;;1.69;100.00
54936;BME280;40838;50.676;7.838;2023-02-20T06:18:39;99109.38;;;1.57;100.00
54936;BME280;40838;50.676;7.838;2023-02-20T06:21:07;99115.88;;;1.68;100.00
54936;BME280;40838;50.676;7.838;2023-02-20T06:23:35;99116.28;;;1.71;100.00
54936;BME280;40838;50.676;7.838;2023-02-20T06:26:04;99120.44;;;1.39;100.00
54936;BME280;40838;50.676;7.838;2023-02-20T06:28:31;99128.13;;;1.41;100.00
54936;BME280;40838;50.676;7.838;2023-02-20T06:30:58;99124.50;;;1.48;100.00
54936;BME280;40838;50.676;7.838;2023-02-20T06:33:30;99120.91;;;1.63;100.00
54936;BME280;40838;50.676;7.838;2023-02-20T06:36:00;99128.38;;;1.46;100.00
54936;BME280;40838;50.676;7.838;2023-02-20T06:38:29;99126.88;;;1.30;100.00
54936;BME280;40838;50.676;7.838;2023-02-20T06:40:57;99125.34;;;1.69;100.00
54936;BME280;40838;50.676;7.838;2023-02-20T06:43:24;99135.72;;;1.22;100.00
54936;BME280;40838;50.676;7.838;2023-02-20T06:45:51;99124.53;;;1.00;100.00
54936;BME280;40838;50.676;7.838;2023-02-20T06:48:18;99119.56;;;1.19;100.00
54936;BME280;40838;50.676;7.838;2023-02-20T06:50:45;99130.81;;;1.74;100.00
54936;BME280;40838;50.676;7.838;2023-02-20T06:53:13;99125.56;;;1.61;100.00
54936;BME280;40838;50.676;7.838;2023-02-20T06:55:39;99127.56;;;1.59;100.00
54936;BME280;40838;50.676;7.838;2023-02-20T06:58:06;99126.53;;;1.46;100.00
54936;BME280;40838;50.676;7.838;2023-02-20T07:00:33;99124.19;;;2.31;100.00
54936;BME280;40838;50.676;7.838;2023-02-20T07:03:00;99120.75;;;2.04;100.00
54936;BME280;40838;50.676;7.838;2023-02-20T07:05:26;99113.88;;;2.50;100.00
54936;BME280;40838;50.676;7.838;2023-02-20T07:07:59;99124.22;;;2.51;100.00
54936;BME280;40838;50.676;7.838;2023-02-20T07:10:31;99129.72;;;3.08;100.00
54936;BME280;40838;50.676;7.838;2023-02-20T07:12:57;99126.69;;;4.13;100.00
54936;BME280;40838;50.676;7.838;2023-02-20T07:15:24;99117.69;;;3.95;100.00
54936;BME280;40838;50.676;7.838;2023-02-20T07:17:51;99115.84;;;3.96;100.00
54936;BME280;40838;50.676;7.838;2023-02-20T07:20:20;99111.13;;;5.10;100.00
54936;BME280;40838;50.676;7.838;2023-02-20T07:22:50;99104.78;;;4.37;100.00
54936;BME280;40838;50.676;7.838;2023-02-20T07:25:17;99108.38;;;3.93;100.00
54936;BME280;40838;50.676;7.838;2023-02-20T07:27:45;99107.50;;;3.36;100.00
54936;BME280;40838;50.676;7.838;2023-02-20T07:30:12;99102.03;;;4.01;100.00
54936;BME280;40838;50.676;7.838;2023-02-20T07:32:40;99103.13;;;4.61;100.00
54936;BME280;40838;50.676;7.838;2023-02-20T07:35:07;99092.72;;;4.48;100.00
54936;BME280;40838;50.676;7.838;2023-02-20T07:37:34;99090.59;;;4.38;100.00
54936;BME280;40838;50.676;7.838;2023-02-20T07:40:01;99092.72;;;5.64;100.00
54936;BME280;40838;50.676;7.838;2023-02-20T07:42:28;99087.13;;;5.72;100.00
54936;BME280;40838;50.676;7.838;2023-02-20T07:45:21;99089.56;;;4.76;100.00
54936;BME280;40838;50.676;7.838;2023-02-20T07:47:50;99089.41;;;4.53;100.00
54936;BME280;40838;50.676;7.838;2023-02-20T07:50:17;99097.25;;;4.16;100.00
54936;BME280;40838;50.676;7.838;2023-02-20T07:52:47;99094.75;;;4.28;100.00
54936;BME280;40838;50.676;7.838;2023-02-20T07:55:15;99091.34;;;4.82;100.00
54936;BME280;40838;50.676;7.838;2023-02-20T07:57:45;99091.25;;;5.07;100.00
54936;BME280;40838;50.676;7.838;2023-02-20T08:00:14;99086.72;;;4.78;100.00
54936;BME280;40838;50.676;7.838;2023-02-20T08:02:43;99083.41;;;4.20;100.00
54936;BME280;40838;50.676;7.838;2023-02-20T08:05:13;99081.59;;;4.21;100.00
54936;BME280;40838;50.676;7.838;2023-02-20T08:07:43;99076.22;;;4.34;100.00
54936;BME280;40838;50.676;7.838;2023-02-20T08:10:11;99073.53;;;5.56;100.00
54936;BME280;40838;50.676;7.838;2023-02-20T08:12:38;99083.28;;;5.98;100.00
54936;BME280;40838;50.676;7.838;2023-02-20T08:15:05;99075.91;;;7.51;98.91
54936;BME280;40838;50.676;7.838;2023-02-20T08:17:33;99090.25;;;5.39;100.00
54936;BME280;40838;50.676;7.838;2023-02-20T08:20:02;99084.81;;;6.41;100.00
54936;BME280;40838;50.676;7.838;2023-02-20T08:22:32;99079.13;;;5.90;100.00
54936;BME280;40838;50.676;7.838;2023-02-20T08:24:59;99077.94;;;6.80;100.00
54936;BME280;40838;50.676;7.838;2023-02-20T08:27:29;99078.78;;;5.98;100.00
54936;BME280;40838;50.676;7.838;2023-02-20T08:29:56;99084.09;;;6.22;100.00
54936;BME280;40838;50.676;7.838;2023-02-20T08:32:23;99078.63;;;8.58;93.95
54936;BME280;40838;50.676;7.838;2023-02-20T08:34:50;99080.59;;;9.11;90.47
54936;BME280;40838;50.676;7.838;2023-02-20T08:37:18;99085.94;;;10.30;84.53
54936;BME280;40838;50.676;7.838;2023-02-20T08:39:44;99086.31;;;10.06;83.43
54936;BME280;40838;50.676;7.838;2023-02-20T08:42:19;99084.25;;;11.24;79.63
54936;BME280;40838;50.676;7.838;2023-02-20T08:44:46;99069.31;;;13.26;67.71
54936;BME280;40838;50.676;7.838;2023-02-20T08:47:13;99083.75;;;9.30;84.75
54936;BME280;40838;50.676;7.838;2023-02-20T08:49:40;99080.91;;;9.96;82.56
54936;BME280;40838;50.676;7.838;2023-02-20T08:52:07;99079.59;;;8.35;90.27
54936;BME280;40838;50.676;7.838;2023-02-20T08:54:35;99076.03;;;9.61;84.83
54936;BME280;40838;50.676;7.838;2023-02-20T08:57:03;99080.34;;;10.26;82.26
54936;BME280;40838;50.676;7.838;2023-02-20T08:59:36;99079.38;;;10.95;78.12
54936;BME280;40838;50.676;7.838;2023-02-20T09:02:04;99076.25;;;10.61;78.15
54936;BME280;40838;50.676;7.838;2023-02-20T09:04:31;99075.84;;;10.00;83.44
54936;BME280;40838;50.676;7.838;2023-02-20T09:06:57;99077.47;;;8.92;86.02
54936;BME280;40838;50.676;7.838;2023-02-20T09:09:24;99080.09;;;9.96;83.95
54936;BME280;40838;50.676;7.838;2023-02-20T09:11:52;99076.31;;;9.86;85.56
54936;BME280;40838;50.676;7.838;2023-02-20T09:14:19;99082.81;;;9.19;86.79
54936;BME280;40838;50.676;7.838;2023-02-20T09:16:46;99070.75;;;9.93;82.68
54936;BME280;40838;50.676;7.838;2023-02-20T09:19:17;99080.72;;;9.76;83.84
54936;BME280;40838;50.676;7.838;2023-02-20T09:21:45;99089.56;;;10.61;79.72
54936;BME280;40838;50.676;7.838;2023-02-20T09:24:13;99089.91;;;10.75;80.85
54936;BME280;40838;50.676;7.838;2023-02-20T09:26:43;99092.38;;;10.39;81.08
54936;BME280;40838;50.676;7.838;2023-02-20T09:29:13;99085.84;;;11.15;77.90
54936;BME280;40838;50.676;7.838;2023-02-20T09:31:46;99087.41;;;11.06;78.17
54936;BME280;40838;50.676;7.838;2023-02-20T09:34:13;99086.44;;;9.62;85.23
54936;BME280;40838;50.676;7.838;2023-02-20T09:36:39;99090.34;;;9.77;86.92
54936;BME280;40838;50.676;7.838;2023-02-20T09:39:06;99087.50;;;9.34;85.99
54936;BME280;40838;50.676;7.838;2023-02-20T09:41:41;99091.38;;;9.27;85.15
54936;BME280;40838;50.676;7.838;2023-02-20T09:44:18;99083.69;;;9.52;84.92
54936;BME280;40838;50.676;7.838;2023-02-20T09:46:53;99075.06;;;10.37;82.59
54936;BME280;40838;50.676;7.838;2023-02-20T09:49:24;99074.25;;;9.39;88.09
54936;BME280;40838;50.676;7.838;2023-02-20T09:51:55;99072.25;;;10.64;83.35
54936;BME280;40838;50.676;7.838;2023-02-20T09:54:26;99071.00;;;10.24;82.35
54936;BME280;40838;50.676;7.838;2023-02-20T09:57:00;99078.34;;;10.12;83.23
54936;BME280;40838;50.676;7.838;2023-02-20T09:59:31;99071.72;;;10.14;81.64
54936;BME280;40838;50.676;7.838;2023-02-20T10:02:04;99075.00;;;10.26;80.40
54936;BME280;40838;50.676;7.838;2023-02-20T10:04:39;99080.06;;;9.63;82.90
54936;BME280;40838;50.676;7.838;2023-02-20T10:07:15;99081.00;;;8.59;85.78
54936;BME280;40838;50.676;7.838;2023-02-20T10:09:46;99082.03;;;8.36;86.83
54936;BME280;40838;50.676;7.838;2023-02-20T10:12:17;99069.72;;;9.94;83.10
54936;BME280;40838;50.676;7.838;2023-02-20T10:14:55;99072.72;;;9.71;83.56
54936;BME280;40838;50.676;7.838;2023-02-20T10:17:32;99066.50;;;10.77;77.28
54936;BME280;40838;50.676;7.838;2023-02-20T10:20:15;99058.56;;;10.92;76.64
54936;BME280;40838;50.676;7.838;2023-02-20T10:22:52;99062.31;;;10.44;78.56
54936;BME280;40838;50.676;7.838;2023-02-20T10:25:27;99072.78;;;10.55;78.22
54936;BME280;40838;50.676;7.838;2023-02-20T10:28:00;99069.22;;;10.92;78.68
54936;BME280;40838;50.676;7.838;2023-02-20T10:30:32;99059.22;;;12.27;72.51
54936;BME280;40838;50.676;7.838;2023-02-20T10:33:03;99049.41;;;11.82;76.26
54936;BME280;40838;50.676;7.838;2023-02-20T10:35:36;99053.38;;;11.54;73.76
54936;BME280;40838;50.676;7.838;2023-02-20T10:38:08;99053.63;;;12.24;72.92
54936;BME280;40838;50.676;7.838;2023-02-20T10:40:39;99053.88;;;11.30;76.14
54936;BME280;40838;50.676;7.838;2023-02-20T10:43:13;99051.75;;;11.42;77.09
54936;BME280;40838;50.676;7.838;2023-02-20T10:46:04;99056.97;;;10.39;79.23
54936;BME280;40838;50.676;7.838;2023-02-20T10:48:37;99049.63;;;11.39;76.62
54936;BME280;40838;50.676;7.838;2023-02-20T10:51:10;99055.22;;;11.33;74.23
54936;BME280;40838;50.676;7.838;2023-02-20T10:53:45;99056.31;;;10.69;79.22
54936;BME280;40838;50.676;7.838;2023-02-20T10:56:17;99041.91;;;12.09;75.55
54936;BME280;40838;50.676;7.838;2023-02-20T10:58:51;99034.97;;;11.47;75.95
54936;BME280;40838;50.676;7.838;2023-02-20T11:01:22;99024.53;;;12.12;77.15
54936;BME280;40838;50.676;7.838;2023-02-20T11:03:55;99027.41;;;12.46;66.41
54936;BME280;40838;50.676;7.838;2023-02-20T11:06:26;99033.09;;;12.04;69.11
54936;BME280;40838;50.676;7.838;2023-02-20T11:08:55;99034.09;;;12.39;71.84
54936;BME280;40838;50.676;7.838;2023-02-20T11:11:28;99033.03;;;11.22;72.53
54936;BME280;40838;50.676;7.838;2023-02-20T11:13:58;99032.44;;;10.89;75.14
54936;BME280;40838;50.676;7.838;2023-02-20T11:16:31;99025.47;;;10.78;75.01
54936;BME280;40838;50.676;7.838;2023-02-20T11:19:08;99022.13;;;12.10;71.42
54936;BME280;40838;50.676;7.838;2023-02-20T11:21:39;99017.16;;;12.69;69.02
54936;BME280;40838;50.676;7.838;2023-02-20T11:24:25;99002.09;;;12.18;69.59
54936;BME280;40838;50.676;7.838;2023-02-20T11:26:56;99010.66;;;11.69;67.00
54936;BME280;40838;50.676;7.838;2023-02-20T11:29:23;99020.00;;;12.07;67.99
54936;BME280;40838;50.676;7.838;2023-02-20T11:31:52;99026.59;;;10.92;71.04
54936;BME280;40838;50.676;7.838;2023-02-20T11:34:21;99013.09;;;11.55;69.76
54936;BME280;40838;50.676;7.838;2023-02-20T11:36:50;99013.03;;;11.19;68.29
54936;BME280;40838;50.676;7.838;2023-02-20T11:39:23;99006.28;;;10.76;68.79
54936;BME280;40838;50.676;7.838;2023-02-20T11:42:04;99005.81;;;11.05;71.81
54936;BME280;40838;50.676;7.838;2023-02-20T11:44:32;98996.78;;;11.77;69.88
54936;BME280;40838;50.676;7.838;2023-02-20T11:47:22;98998.94;;;11.55;68.84
54936;BME280;40838;50.676;7.838;2023-02-20T11:49:49;98982.94;;;11.85;66.29
54936;BME280;40838;50.676;7.838;2023-02-20T11:52:33;98981.84;;;12.82;66.37
54936;BME280;40838;50.676;7.838;2023-02-20T11:55:11;98975.72;;;11.19;69.42
54936;BME280;40838;50.676;7.838;2023-02-20T11:57:44;98979.81;;;10.64;70.19
54936;BME280;40838;50.676;7.838;2023-02-20T12:00:14;98965.59;;;11.27;71.38
54936;BME280;40838;50.676;7.838;2023-02-20T12:02:53;98965.59;;;10.33;73.89
54936;BME280;40838;50.676;7.838;2023-02-20T12:05:21;98951.75;;;10.36;76.00
54936;BME280;40838;50.676;7.838;2023-02-20T12:08:01;98954.00;;;10.70;75.19
54936;BME280;40838;50.676;7.838;2023-02-20T12:10:37;98945.84;;;10.97;73.92
54936;BME280;40838;50.676;7.838;2023-02-20T12:13:11;98943.09;;;10.08;76.97
54936;BME280;40838;50.676;7.838;2023-02-20T12:15:40;98939.72;;;11.22;76.99
54936;BME280;40838;50.676;7.838;2023-02-20T12:18:27;98931.41;;;10.93;74.00
54936;BME280;40838;50.676;7.838;2023-02-20T12:21:06;98936.06;;;10.45;74.79
54936;BME280;40838;50.676;7.838;2023-02-20T12:23:41;98935.84;;;10.57;76.86
54936;BME280;40838;50.676;7.838;2023-02-20T12:26:31;98937.09;;;10.33;75.56
54936;BME280;40838;50.676;7.838;2023-02-20T12:29:09;98931.31;;;10.57;76.48
54936;BME280;40838;50.676;7.838;2023-02-20T12:31:48;98918.13;;;10.20;77.64
54936;BME280;40838;50.676;7.838;2023-02-20T12:34:32;98907.88;;;10.64;78.80
54936;BME280;40838;50.676;7.838;2023-02-20T12:37:09;98896.78;;;11.13;76.27
54936;BME280;40838;50.676;7.838;2023-02-20T12:39:47;98901.06;;;10.94;75.14
54936;BME280;40838;50.676;7.838;2023-02-20T12:42:29;98888.53;;;11.20;75.41
54936;BME280;40838;50.676;7.838;2023-02-20T12:45:07;98884.22;;;10.78;76.40
54936;BME280;40838;50.676;7.838;2023-02-20T12:47:39;98874.00;;;10.49;77.15
54936;BME280;40838;50.676;7.838;2023-02-20T12:50:28;98875.22;;;10.99;77.00
54936;BME280;40838;50.676;7.838;2023-02-20T12:53:16;98857.06;;;11.27;74.91
54936;BME280;40838;50.676;7.838;2023-02-20T12:55:53;98866.94;;;11.06;76.73
54936;BME280;40838;50.676;7.838;2023-02-20T12:58:34;98862.94;;;11.04;80.53
54936;BME280;40838;50.676;7.838;2023-02-20T13:01:06;98861.84;;;11.05;80.69
54936;BME280;40838;50.676;7.838;2023-02-20T13:03:48;98868.63;;;10.24;81.20
54936;BME280;40838;50.676;7.838;2023-02-20T13:06:26;98851.88;;;10.28;81.36
54936;BME280;40838;50.676;7.838;2023-02-20T13:09:02;98849.41;;;9.54;84.50
54936;BME280;40838;50.676;7.838;2023-02-20T13:11:35;98841.69;;;8.83;88.43
54936;BME280;40838;50.676;7.838;2023-02-20T13:14:15;98832.53;;;10.89;83.98
54936;BME280;40838;50.676;7.838;2023-02-20T13:16:49;98836.81;;;9.39;85.15
54936;BME280;40838;50.676;7.838;2023-02-20T13:19:22;98826.72;;;9.94;82.68
54936;BME280;40838;50.676;7.838;2023-02-20T13:21:53;98836.75;;;9.76;86.16
54936;BME280;40838;50.676;7.838;2023-02-20T13:24:28;98833.31;;;9.76;84.48
54936;BME280;40838;50.676;7.838;2023-02-20T13:26:55;98833.44;;;10.06;85.86
54936;BME280;40838;50.676;7.838;2023-02-20T13:29:24;98831.97;;;10.67;84.45
54936;BME280;40838;50.676;7.838;2023-02-20T13:32:23;98823.84;;;10.00;84.00
54936;BME280;40838;50.676;7.838;2023-02-20T13:35:37;98825.91;;;9.83;84.63
54936;BME280;40838;50.676;7.838;2023-02-20T13:38:14;98824.03;;;10.77;82.52
54936;BME280;40838;50.676;7.838;2023-02-20T13:41:04;98807.13;;;10.25;83.48
54936;BME280;40838;50.676;7.838;2023-02-20T13:43:32;98803.72;;;10.61;82.13